Lacon, Illinois
Current Conditions -  °F | °C
As of 3:35 AM on Thursday 27 Nov 2014 (Local Time) from KC75 Reporting Station
Haze Haze  
Wind Chill: 17°   Ceiling: 6500
Heat Index: 23°   Visibility: 5mi
Dew Point: 18°   Wind: 5mph
Humidity: 83%   Direction: 310°NW
Pressure: 30.31"   Gusts: NA
Location:  41.02°N, 89.41°W
Report Text: KC75 270935Z AUTO 31004KT 5SM HZ BKN065 OVC090 M05/M08 A3031 RMK AO2 T10511076
Loading
Personal Weather Stations






























Interactive Weather Map New forecast layout! Learn more

10-Day Weather Forecast

Advertisements
Track Severe Weather on mobile